createdAt,value
2023-02-16T00:00:04.891Z,100689.94
2023-02-16T00:03:12.196Z,100695.00
2023-02-16T00:06:16.185Z,100694.16
2023-02-16T00:09:19.222Z,100695.00
2023-02-16T00:12:40.445Z,100694.13
2023-02-16T00:15:42.971Z,100694.97
2023-02-16T00:18:45.462Z,100699.19
2023-02-16T00:21:48.802Z,100701.75
2023-02-16T00:24:50.615Z,100692.44
2023-02-16T00:27:53.072Z,100695.00
2023-02-16T00:30:55.056Z,100695.84
2023-02-16T00:33:57.354Z,100698.38
2023-02-16T00:37:01.954Z,100696.66
2023-02-16T00:40:04.402Z,100705.13
2023-02-16T00:43:22.937Z,100691.56
2023-02-16T00:46:24.998Z,100692.41
2023-02-16T00:49:26.956Z,100684.81
2023-02-16T00:52:38.168Z,100691.59
2023-02-16T00:55:41.687Z,100689.91
2023-02-16T00:58:44.043Z,100685.69
2023-02-16T01:01:46.604Z,100686.53
2023-02-16T01:04:48.689Z,100685.69
2023-02-16T01:08:09.202Z,100676.41
2023-02-16T01:11:12.646Z,100675.56
2023-02-16T01:14:15.634Z,100674.72
2023-02-16T01:17:17.866Z,100662.88
2023-02-16T01:20:23.222Z,100658.66
2023-02-16T01:23:27.220Z,100662.03
2023-02-16T01:26:30.205Z,100663.72
2023-02-16T01:29:32.387Z,100659.53
2023-02-16T01:32:34.348Z,100655.28
2023-02-16T01:35:36.296Z,100658.66
2023-02-16T01:38:44.530Z,100623.19
2023-02-16T01:42:13.436Z,100651.94
2023-02-16T01:45:19.930Z,100649.34
2023-02-16T01:48:26.265Z,100651.06
2023-02-16T01:51:49.114Z,100649.34
2023-02-16T01:55:00.638Z,100652.75
2023-02-16T01:58:07.185Z,100649.31
2023-02-16T02:01:36.207Z,100645.09
2023-02-16T02:05:05.218Z,100640.00
2023-02-16T02:08:32.780Z,100636.59
2023-02-16T02:12:04.100Z,100627.28
2023-02-16T02:15:09.208Z,100623.88
2023-02-16T02:18:11.497Z,100623.88
2023-02-16T02:21:54.192Z,100630.69
2023-02-16T02:25:13.733Z,100626.44
2023-02-16T02:28:21.869Z,100618.91
2023-02-16T02:31:55.582Z,100619.75
2023-02-16T02:35:05.486Z,100609.59
2023-02-16T02:38:38.570Z,100610.44
2023-02-16T02:42:10.007Z,100611.31
2023-02-16T02:45:31.782Z,100601.19
2023-02-16T02:48:34.702Z,100613.88
2023-02-16T02:51:40.436Z,100602.06
2023-02-16T02:55:06.644Z,100598.66
2023-02-16T02:58:30.575Z,100592.75
2023-02-16T03:01:38.005Z,100604.59
2023-02-16T03:04:40.805Z,100602.03
2023-02-16T03:07:49.324Z,100604.53
2023-02-16T03:11:14.412Z,100591.84
2023-02-16T03:14:40.406Z,100605.31
2023-02-16T03:18:00.822Z,100604.41
2023-02-16T03:21:23.245Z,100608.63
2023-02-16T03:24:47.887Z,100605.25
2023-02-16T03:28:09.971Z,100601.88
2023-02-16T03:31:18.817Z,100605.28
2023-02-16T03:34:22.605Z,100611.19
2023-02-16T03:37:24.584Z,100600.19
2023-02-16T03:40:29.095Z,100598.50
2023-02-16T03:43:30.954Z,100584.13
2023-02-16T03:46:33.419Z,100588.34
2023-02-16T03:49:35.315Z,100586.66
2023-02-16T03:52:37.170Z,100575.72
2023-02-16T03:55:44.449Z,100577.41
2023-02-16T03:58:46.446Z,100584.97
2023-02-16T04:01:48.424Z,100580.78
2023-02-16T04:04:50.286Z,100579.97
2023-02-16T04:07:52.122Z,100579.09
2023-02-16T04:10:55.528Z,100579.91
2023-02-16T04:13:57.466Z,100578.22
2023-02-16T04:16:59.431Z,100580.78
2023-02-16T04:20:01.730Z,100573.16
2023-02-16T04:23:04.079Z,100568.13
2023-02-16T04:26:05.987Z,100568.13
2023-02-16T04:29:07.848Z,100563.91
2023-02-16T04:32:09.831Z,100567.25
2023-02-16T04:35:11.861Z,100566.44
2023-02-16T04:38:13.814Z,100561.31
2023-02-16T04:41:15.743Z,100563.88
2023-02-16T04:44:17.666Z,100567.28
2023-02-16T04:47:19.711Z,100563.03
2023-02-16T04:50:21.661Z,100568.09
2023-02-16T04:53:23.614Z,100562.16
2023-02-16T04:56:25.656Z,100564.69
2023-02-16T04:59:27.578Z,100568.91
2023-02-16T05:02:29.476Z,100566.41
2023-02-16T05:05:31.702Z,100556.22
2023-02-16T05:08:33.625Z,100563.78
2023-02-16T05:11:54.236Z,100563.78
2023-02-16T05:14:56.204Z,100561.22
2023-02-16T05:17:58.084Z,100557.03
2023-02-16T05:21:18.527Z,100562.03
2023-02-16T05:24:20.447Z,100566.31
2023-02-16T05:27:25.796Z,100558.81
2023-02-16T05:30:27.772Z,100563.00
2023-02-16T05:33:29.710Z,100567.13
2023-02-16T05:36:31.808Z,100565.41
2023-02-16T05:39:33.827Z,100570.56
2023-02-16T05:42:35.742Z,100567.16
2023-02-16T05:45:38.979Z,100566.31
2023-02-16T05:48:40.862Z,100575.72
2023-02-16T05:51:48.600Z,100577.38
2023-02-16T05:54:50.411Z,100589.19
2023-02-16T05:57:52.306Z,100590.88
2023-02-16T06:00:54.186Z,100595.97
2023-02-16T06:03:56.399Z,100590.97
2023-02-16T06:06:58.653Z,100588.47
2023-02-16T06:30:10.555Z,100590.78
2023-02-16T06:33:12.602Z,100594.16
2023-02-16T06:36:15.246Z,100583.25
2023-02-16T06:39:17.323Z,100592.59
2023-02-16T06:42:19.270Z,100585.81
2023-02-16T06:45:23.406Z,100581.59
2023-02-16T06:48:25.485Z,100587.56
2023-02-16T06:51:27.668Z,100584.13
2023-02-16T06:54:29.616Z,100576.53
2023-02-16T06:57:31.478Z,100583.94
2023-02-16T07:00:34.486Z,100583.13
2023-02-16T07:03:36.613Z,100579.75
2023-02-16T07:06:38.692Z,100580.63
2023-02-16T07:09:40.676Z,100570.56
2023-02-16T07:12:42.723Z,100571.53
2023-02-16T07:15:44.601Z,100572.38
2023-02-16T07:18:47.353Z,100572.38
2023-02-16T07:21:49.433Z,100568.09
2023-02-16T07:24:51.441Z,100566.50
2023-02-16T07:27:54.691Z,100573.25
2023-02-16T07:30:56.833Z,100568.25
2023-02-16T07:33:58.840Z,100575.84
2023-02-16T07:37:00.740Z,100568.25
2023-02-16T07:40:02.697Z,100562.38
2023-02-16T07:43:06.396Z,100559.00
2023-02-16T07:46:08.649Z,100568.28
2023-02-16T07:49:10.739Z,100559.00
2023-02-16T07:52:12.986Z,100559.84
2023-02-16T07:55:15.208Z,100551.44
2023-02-16T07:58:27.387Z,100561.56
2023-02-16T08:01:30.595Z,100552.25
2023-02-16T08:04:32.780Z,100557.34
2023-02-16T08:07:34.862Z,100552.25
2023-02-16T08:10:36.843Z,100551.41
2023-02-16T08:13:39.170Z,100551.41
2023-02-16T08:16:41.289Z,100549.72
2023-02-16T08:19:43.533Z,100545.50
2023-02-16T08:22:45.446Z,100543.81
2023-02-16T08:25:47.354Z,100553.09
2023-02-16T08:28:50.259Z,100543.81
2023-02-16T08:31:53.436Z,100542.09
2023-02-16T08:34:57.432Z,100535.38
2023-02-16T08:38:00.147Z,100539.59
2023-02-16T08:41:02.617Z,100542.13
2023-02-16T08:44:06.871Z,100547.19
2023-02-16T08:47:10.957Z,100550.56
2023-02-16T08:50:12.942Z,100560.69
2023-02-16T08:53:15.459Z,100555.63
2023-02-16T08:56:17.462Z,100565.72
2023-02-16T08:59:20.884Z,100568.22
2023-02-16T09:02:23.849Z,100569.03
2023-02-16T09:05:25.900Z,100571.56
2023-02-16T09:08:28.623Z,100574.00
2023-02-16T09:11:31.142Z,100576.47
2023-02-16T09:14:33.177Z,100567.19
2023-02-16T09:17:36.138Z,100560.50
2023-02-16T09:20:41.344Z,100569.72
2023-02-16T09:23:48.261Z,100553.38
2023-02-16T09:26:50.134Z,100561.22
2023-02-16T09:29:52.237Z,100558.66
2023-02-16T09:32:55.344Z,100564.50
2023-02-16T09:35:57.322Z,100562.59
2023-02-16T09:38:59.995Z,100571.19
2023-02-16T09:42:07.194Z,100567.47
2023-02-16T09:45:14.237Z,100565.94
2023-02-16T09:48:50.377Z,100575.72
2023-02-16T10:24:06.606Z,100556.94
2023-02-16T10:27:16.318Z,100555.59
2023-02-16T10:30:21.038Z,100551.91
2023-02-16T10:33:40.926Z,100561.97
2023-02-16T10:36:49.996Z,100561.81
2023-02-16T10:39:54.766Z,100562.53
2023-02-16T10:43:15.799Z,100557.84
2023-02-16T10:46:23.950Z,100550.81
2023-02-16T10:49:27.091Z,100541.22
2023-02-16T10:52:36.105Z,100545.31
2023-02-16T10:55:38.921Z,100545.16
2023-02-16T10:58:42.482Z,100538.56
2023-02-16T11:01:49.071Z,100534.44
2023-02-16T11:04:53.615Z,100531.84
2023-02-16T11:07:58.426Z,100524.88
2023-02-16T11:11:09.486Z,100516.13
2023-02-16T11:14:30.479Z,100516.00
2023-02-16T11:17:49.625Z,100512.69
2023-02-16T11:20:54.324Z,100515.69
2023-02-16T11:23:59.807Z,100503.44
2023-02-16T11:27:28.063Z,100505.06
2023-02-16T11:30:35.958Z,100510.66
2023-02-16T11:33:40.275Z,100504.78
2023-02-16T11:36:45.186Z,100500.72
2023-02-16T11:39:51.036Z,100491.66
2023-02-16T11:42:56.073Z,100500.22
2023-02-16T11:46:20.194Z,100498.44
2023-02-16T11:49:42.423Z,100493.94
2023-02-16T11:52:49.699Z,100487.22
2023-02-16T11:55:53.081Z,100476.38
2023-02-16T11:59:12.853Z,100483.38
2023-02-16T12:02:42.284Z,100472.25
2023-02-16T12:06:21.497Z,100468.53
2023-02-16T12:09:56.949Z,100468.91
2023-02-16T12:13:08.226Z,100472.59
2023-02-16T12:16:28.566Z,100461.50
2023-02-16T12:19:44.849Z,100450.09
2023-02-16T12:22:49.370Z,100449.16
2023-02-16T12:26:00.011Z,100446.44
2023-02-16T12:29:06.897Z,100446.00
2023-02-16T12:32:11.829Z,100443.16
2023-02-16T12:35:17.094Z,100445.53
2023-02-16T12:38:33.701Z,100433.41
2023-02-16T12:42:04.911Z,100438.81
2023-02-16T12:45:14.374Z,100413.50
2023-02-16T12:48:41.791Z,100419.13
2023-02-16T12:51:53.090Z,100415.16
2023-02-16T12:55:56.745Z,100408.22
2023-02-16T12:59:23.897Z,100403.09
2023-02-16T13:02:47.254Z,100400.47
2023-02-16T13:05:59.180Z,100392.94
2023-02-16T13:09:35.284Z,100394.84
2023-02-16T13:13:18.021Z,100385.53
2023-02-16T13:16:50.299Z,100375.16
2023-02-16T13:19:52.458Z,100375.22
2023-02-16T13:23:24.741Z,100369.88
2023-02-16T13:26:38.511Z,100366.75
2023-02-16T13:30:00.458Z,100363.63
2023-02-16T13:33:24.521Z,100359.81
2023-02-16T13:36:44.918Z,100352.00
2023-02-16T13:40:01.335Z,100350.31
2023-02-16T13:43:35.483Z,100348.47
2023-02-16T13:46:41.942Z,100340.84
2023-02-16T13:49:44.199Z,100345.34
2023-02-16T13:52:47.049Z,100346.00
2023-02-16T13:55:52.713Z,100337.25
2023-02-16T13:58:58.163Z,100335.66
2023-02-16T14:02:00.028Z,100338.66
2023-02-16T14:05:09.971Z,100333.78
2023-02-16T14:08:22.277Z,100332.84
2023-02-16T14:11:24.477Z,100334.34
2023-02-16T14:14:41.474Z,100336.38
2023-02-16T14:17:44.238Z,100335.09
2023-02-16T14:20:46.489Z,100327.91
2023-02-16T14:23:56.242Z,100328.28
2023-02-16T14:27:01.116Z,100324.78
2023-02-16T14:30:13.897Z,100322.69
2023-02-16T14:33:25.219Z,100325.53
2023-02-16T14:36:27.751Z,100324.28
2023-02-16T14:39:30.219Z,100324.16
2023-02-16T14:42:34.797Z,100319.63
2023-02-16T14:46:18.389Z,100318.97
2023-02-16T14:49:51.632Z,100316.41
2023-02-16T14:53:31.977Z,100316.53
2023-02-16T14:56:36.906Z,100304.44
2023-02-16T14:59:44.500Z,100304.19
2023-02-16T15:02:55.356Z,100302.16
2023-02-16T15:06:00.195Z,100300.13
2023-02-16T15:09:14.612Z,100295.25
2023-02-16T15:12:22.673Z,100302.13
2023-02-16T15:15:47.066Z,100303.88
2023-02-16T15:18:53.368Z,100302.22
2023-02-16T15:22:22.197Z,100298.19
2023-02-16T15:25:39.039Z,100295.97
2023-02-16T15:28:42.206Z,100282.78
2023-02-16T15:31:44.731Z,100286.34
2023-02-16T15:34:47.286Z,100297.56
2023-02-16T15:37:59.687Z,100290.91
2023-02-16T15:41:13.195Z,100290.91
2023-02-16T15:44:39.265Z,100293.03
2023-02-16T15:47:44.176Z,100285.56
2023-02-16T15:50:49.465Z,100290.41
2023-02-16T15:53:54.572Z,100285.28
2023-02-16T15:57:30.895Z,100284.44
2023-02-16T16:00:33.830Z,100284.63
2023-02-16T16:03:35.916Z,100292.50
2023-02-16T16:06:40.322Z,100288.03
2023-02-16T16:09:43.911Z,100279.94
2023-02-16T16:12:47.716Z,100277.56
2023-02-16T16:15:51.369Z,100288.44
2023-02-16T16:18:54.039Z,100286.91
2023-02-16T16:21:55.965Z,100291.94
2023-02-16T16:24:59.297Z,100283.56
2023-02-16T16:28:03.221Z,100292.91
2023-02-16T16:31:33.167Z,100293.72
2023-02-16T16:34:40.622Z,100292.88
2023-02-16T16:37:42.798Z,100286.22
2023-02-16T16:40:51.279Z,100295.41
2023-02-16T16:43:56.785Z,100294.63
2023-02-16T16:47:14.127Z,100292.16
2023-02-16T16:50:17.753Z,100283.84
2023-02-16T16:53:28.772Z,100289.09
2023-02-16T16:56:36.945Z,100284.84
2023-02-16T16:59:39.576Z,100289.81
2023-02-16T17:02:42.177Z,100292.53
2023-02-16T17:05:45.593Z,100292.53
2023-02-16T17:08:48.166Z,100285.03
2023-02-16T17:11:50.308Z,100286.69
2023-02-16T17:14:53.391Z,100289.50
2023-02-16T17:17:56.378Z,100277.75
2023-02-16T17:20:58.770Z,100276.09
2023-02-16T17:24:01.181Z,100280.31
2023-02-16T17:27:03.095Z,100279.47
2023-02-16T17:30:06.040Z,100273.72
2023-02-16T17:33:09.652Z,100274.88
2023-02-16T17:36:14.771Z,100274.25
2023-02-16T17:39:18.594Z,100278.44
2023-02-16T17:42:21.242Z,100278.56
2023-02-16T17:45:23.430Z,100270.91
2023-02-16T17:48:29.306Z,100279.38
2023-02-16T17:51:36.185Z,100275.16
2023-02-16T17:54:39.371Z,100281.09
2023-02-16T17:57:41.775Z,100272.72
2023-02-16T18:00:45.527Z,100277.00
2023-02-16T18:03:48.002Z,100264.28
2023-02-16T18:06:51.311Z,100265.09
2023-02-16T18:09:55.786Z,100257.75
2023-02-16T18:12:58.027Z,100250.06
2023-02-16T18:16:03.812Z,100258.19
2023-02-16T18:19:08.722Z,100260.06
2023-02-16T18:22:10.711Z,100253.63
2023-02-16T18:25:12.592Z,100248.34
2023-02-16T18:28:20.998Z,100254.38
2023-02-16T18:31:23.277Z,100257.94
2023-02-16T18:34:26.387Z,100253.78
2023-02-16T18:37:28.895Z,100249.53
2023-02-16T18:40:31.163Z,100234.44
2023-02-16T18:43:35.797Z,100243.00
2023-02-16T18:46:37.958Z,100245.66
2023-02-16T18:49:40.401Z,100234.66
2023-02-16T18:52:43.430Z,100232.00
2023-02-16T18:55:45.619Z,100233.59
2023-02-16T18:58:48.250Z,100226.84
2023-02-16T19:01:58.409Z,100236.31
2023-02-16T19:05:00.526Z,100240.53
2023-02-16T19:08:02.808Z,100227.81
2023-02-16T19:11:05.190Z,100234.44
2023-02-16T19:14:09.057Z,100242.25
2023-02-16T19:17:11.780Z,100238.78
2023-02-16T19:20:18.917Z,100227.38
2023-02-16T19:23:41.177Z,100229.34
2023-02-16T19:27:03.117Z,100231.03
2023-02-16T19:30:07.205Z,100238.81
2023-02-16T19:33:09.565Z,100236.44
2023-02-16T19:36:13.426Z,100235.63
2023-02-16T19:39:18.658Z,100234.84
2023-02-16T19:42:21.503Z,100228.00
2023-02-16T19:45:23.651Z,100219.47
2023-02-16T19:48:25.713Z,100221.34
2023-02-16T19:51:28.513Z,100224.00
2023-02-16T19:54:35.828Z,100218.81
2023-02-16T19:57:37.756Z,100215.56
2023-02-16T20:00:39.751Z,100216.44
2023-02-16T20:03:42.852Z,100218.16
2023-02-16T20:06:45.406Z,100213.00
2023-02-16T20:09:47.674Z,100218.03
2023-02-16T20:12:49.939Z,100212.88
2023-02-16T20:15:53.144Z,100220.59
2023-02-16T20:18:56.617Z,100227.97
2023-02-16T20:21:59.052Z,100222.03
2023-02-16T20:25:01.272Z,100225.28
2023-02-16T20:28:03.652Z,100228.69
2023-02-16T20:31:36.888Z,100232.94
2023-02-16T20:34:39.139Z,100229.47
2023-02-16T20:37:41.329Z,100221.81
2023-02-16T20:40:44.106Z,100227.97
2023-02-16T20:43:48.070Z,100217.81
2023-02-16T20:46:51.233Z,100216.16
2023-02-16T20:49:53.582Z,100222.91
2023-02-16T20:52:55.574Z,100220.28
2023-02-16T20:56:16.369Z,100216.22
2023-02-16T20:59:18.689Z,100222.22
2023-02-16T21:02:21.020Z,100217.94
2023-02-16T21:05:23.371Z,100194.50
2023-02-16T21:08:26.035Z,100214.53
2023-02-16T21:11:28.946Z,100212.81
2023-02-16T21:14:31.024Z,100208.84
2023-02-16T21:17:33.652Z,100206.34
2023-02-16T21:20:35.719Z,100193.72
2023-02-16T21:23:37.637Z,100197.00
2023-02-16T21:26:43.066Z,100196.09
2023-02-16T21:29:45.423Z,100193.34
2023-02-16T21:32:48.426Z,100191.59
2023-02-16T21:35:51.885Z,100187.56
2023-02-16T21:38:53.914Z,100182.53
2023-02-16T21:41:55.970Z,100191.84
2023-02-16T21:45:12.893Z,100183.47
2023-02-16T21:48:33.542Z,100171.94
2023-02-16T21:51:38.138Z,100173.72
2023-02-16T21:54:58.482Z,100173.72
2023-02-16T21:58:00.298Z,100173.69
2023-02-16T22:01:02.516Z,100177.06
2023-02-16T22:04:05.835Z,100173.69
2023-02-16T22:07:07.727Z,100173.63
2023-02-16T22:10:10.836Z,100175.47
2023-02-16T22:13:13.689Z,100171.94
2023-02-16T22:16:21.514Z,100170.06
2023-02-16T22:19:23.418Z,100170.97
2023-02-16T22:22:25.322Z,100168.31
2023-02-16T22:25:27.328Z,100165.69
2023-02-16T22:28:29.351Z,100170.13
2023-02-16T22:31:31.706Z,100165.97
2023-02-16T22:34:33.613Z,100165.94
2023-02-16T22:37:35.476Z,100167.56
2023-02-16T22:40:37.591Z,100169.25
2023-02-16T22:43:41.135Z,100163.25
2023-02-16T22:46:43.844Z,100153.94
2023-02-16T22:49:45.758Z,100153.06
2023-02-16T22:52:48.178Z,100158.19
2023-02-16T22:55:50.078Z,100154.06
2023-02-16T22:58:52.100Z,100154.09
2023-02-16T23:01:54.158Z,100156.66
2023-02-16T23:04:56.498Z,100155.97
2023-02-16T23:07:58.378Z,100154.31
2023-02-16T23:11:04.075Z,100139.13
2023-02-16T23:14:06.674Z,100132.50
2023-02-16T23:17:08.640Z,100140.25
2023-02-16T23:20:11.034Z,100138.53
2023-02-16T23:23:13.020Z,100155.25
2023-02-16T23:26:15.837Z,100151.16
2023-02-16T23:29:17.897Z,100149.50
2023-02-16T23:32:20.129Z,100145.50
2023-02-16T23:35:22.139Z,100153.81
2023-02-16T23:38:24.685Z,100149.59
2023-02-16T23:41:26.674Z,100136.13
2023-02-16T23:44:28.933Z,100147.78
2023-02-16T23:47:30.902Z,100136.00
2023-02-16T23:50:32.798Z,100137.53
2023-02-16T23:53:35.037Z,100139.28
2023-02-16T23:56:37.132Z,100140.22
2023-02-16T23:59:39.161Z,100142.03
